This is the latest recevied weather packets stored in our database for station/object IK0TIX. If no packets are shown the sender has not sent any weather packets the latest 10 day(s).
| Time | Temp. | Humidity | Pressure | Rain* | Wind** | Luminosity | Snow |
|---|---|---|---|---|---|---|---|
| 1777159487 | 15.56° C | 77% | 1018.2 hPa | 0 mm | - | - | - |
| 1777159174 | 15.56° C | 77% | 1018.3 hPa | 0 mm | - | - | - |
| 1777158579 | 15.56° C | 77% | 1018.2 hPa | 0 mm | - | - | - |
| 1777157993 | 15.56° C | 77% | 1018.2 hPa | 0 mm | - | - | - |
| 1777156181 | 16.11° C | 77% | 1018.1 hPa | 0 mm | - | - | - |
| 1777155288 | 16.11° C | 78% | 1018.1 hPa | 0 mm | - | - | - |
| 1777154673 | 16.11° C | 78% | 1018 hPa | 0 mm | - | - | - |
| 1777154398 | 16.11° C | 78% | 1018 hPa | 0 mm | - | - | - |
| 1777153800 | 16.67° C | 78% | 1018 hPa | 0 mm | - | - | - |
| 1777150208 | 17.22° C | 76% | 1017.8 hPa | 0 mm | - | - | - |
| 1777147193 | 17.78° C | 70% | 1017.6 hPa | 0 mm | - | - | - |
| 1777145976 | 17.78° C | 68% | 1017.5 hPa | 0 mm | - | - | - |
| 1777143006 | 18.33° C | 64% | 1017.1 hPa | 0 mm | - | - | - |
| 1777141188 | 19.44° C | 57% | 1016.7 hPa | 0 mm | - | - | - |
| 1777140578 | 20° C | 54% | 1016.5 hPa | 0 mm | - | - | - |
| 1777137282 | 22.22° C | 44% | 1016.2 hPa | 0 mm | - | - | - |
| 1777136671 | 22.22° C | 44% | 1016.2 hPa | 0 mm | - | - | - |
| 1777136382 | 22.22° C | 44% | 1016.2 hPa | 0 mm | - | - | - |
| 1777136084 | 22.22° C | 43% | 1016.1 hPa | 0 mm | - | - | - |
| 1777135810 | 22.22° C | 44% | 1016.1 hPa | 0 mm | - | - | - |
| 1777135190 | 22.78° C | 43% | 1016.2 hPa | 0 mm | - | - | - |
| 1777134293 | 22.78° C | 42% | 1016.2 hPa | 0 mm | - | - | - |
| 1777130993 | 23.33° C | 37% | 1016.1 hPa | 0 mm | - | - | - |
| 1777130381 | 23.33° C | 36% | 1016 hPa | 0 mm | - | - | - |
| 1777129491 | 23.89° C | 37% | 1016 hPa | 0 mm | - | - | - |
* Rain latest hour (hover to see other rain measurements)
** Current wind speed in m/s (hover to see current wind gust speed)